Time;durP1;ratioP1;P1;durP2;ratioP2;P2;SDS_P1;SDS_P2;PMS_P1;PMS_P2;Temp;Humidity;BMP_temperature;BMP_pressure;BME280_temperature;BME280_humidity;BME280_pressure;Samples;Min_cycle;Max_cycle;Signal;HPM_P1;HPM_P2
2023/08/17 00:01:01;;;;;;;4.23;1.10;;;;;;;-145.14;100.00;70583.66;4971374;28;20845;-76
2023/08/17 00:03:26;;;;;;;2.30;0.90;;;;;;;-145.14;100.00;70583.66;4969714;28;20243;-75
2023/08/17 00:05:52;;;;;;;3.03;1.00;;;;;;;-145.14;100.00;70583.66;4970093;28;20190;-75
2023/08/17 00:08:17;;;;;;;4.33;1.30;;;;;;;-145.14;100.00;70583.66;4967487;28;20271;-75
2023/08/17 00:10:43;;;;;;;2.80;1.33;;;;;;;-145.14;100.00;70583.66;4950579;28;20732;-75
2023/08/17 00:13:08;;;;;;;3.73;1.00;;;;;;;-145.14;100.00;70583.66;4968808;28;20205;-75
2023/08/17 00:15:33;;;;;;;3.60;1.03;;;;;;;-145.14;100.00;70583.66;4969445;28;20214;-75
2023/08/17 00:17:59;;;;;;;2.33;1.10;;;;;;;-145.14;100.00;70583.66;4970138;28;20204;-75
2023/08/17 00:20:24;;;;;;;3.50;1.10;;;;;;;-145.14;100.00;70583.66;4968708;28;20244;-74
2023/08/17 00:22:50;;;;;;;3.57;1.10;;;;;;;-145.14;100.00;70583.66;4970504;28;20210;-75
2023/08/17 00:25:15;;;;;;;2.47;1.00;;;;;;;-145.14;100.00;70583.66;4967310;28;20194;-75
2023/08/17 00:27:41;;;;;;;3.33;1.13;;;;;;;-145.14;100.00;70583.66;4968498;28;20269;-75
2023/08/17 00:30:07;;;;;;;3.20;1.00;;;;;;;-145.14;100.00;70583.66;4970105;28;22195;-75
2023/08/17 00:32:32;;;;;;;2.87;1.10;;;;;;;-145.14;100.00;70583.66;4970838;28;20214;-75
2023/08/17 00:34:58;;;;;;;4.23;1.30;;;;;;;-145.14;100.00;70583.66;4972181;28;20457;-75
2023/08/17 00:37:23;;;;;;;4.20;1.70;;;;;;;-145.14;100.00;70583.66;4970420;28;20186;-75
2023/08/17 00:39:49;;;;;;;4.00;1.33;;;;;;;-145.14;100.00;70583.66;4993682;23;20234;-72
2023/08/17 00:42:14;;;;;;;3.70;1.10;;;;;;;-145.14;100.00;70583.66;4989566;28;20643;-72
2023/08/17 00:44:39;;;;;;;3.00;1.10;;;;;;;-145.14;100.00;70583.66;4993076;28;20312;-73
2023/08/17 00:47:05;;;;;;;4.10;1.20;;;;;;;-145.14;100.00;70583.66;4993148;28;20181;-73
2023/08/17 00:49:31;;;;;;;2.90;1.23;;;;;;;-145.14;100.00;70583.66;5003299;28;20308;-72
2023/08/17 00:51:57;;;;;;;5.47;1.60;;;;;;;-145.14;100.00;70583.66;5011590;28;20216;-73
2023/08/17 00:54:27;;;;;;;4.20;1.33;;;;;;;-145.14;100.00;70583.66;5018208;28;20791;-72
2023/08/17 00:56:54;;;;;;;4.10;1.30;;;;;;;-145.14;100.00;70583.66;5012585;28;20623;-73
2023/08/17 00:59:19;;;;;;;7.73;2.23;;;;;;;-145.14;100.00;70583.66;5013810;28;20443;-73
2023/08/17 01:01:47;;;;;;;2.87;1.20;;;;;;;-145.14;100.00;70583.66;5011599;28;20433;-74
2023/08/17 01:04:12;;;;;;;4.50;1.40;;;;;;;-145.14;100.00;70583.66;5007843;28;20188;-72
2023/08/17 01:06:38;;;;;;;3.10;1.50;;;;;;;-145.14;100.00;70583.66;5008155;28;20462;-72
2023/08/17 01:09:03;;;;;;;4.80;1.57;;;;;;;-145.14;100.00;70583.66;5007949;28;20204;-72
2023/08/17 01:11:45;;;;;;;2.67;1.30;;;;;;;-145.14;100.00;70583.66;5007842;28;20231;-72
2023/08/17 01:14:10;;;;;;;4.13;1.47;;;;;;;-145.14;100.00;70583.66;5005672;28;20192;-72
2023/08/17 01:17:01;;;;;;;4.13;1.30;;;;;;;-145.14;100.00;70583.66;5007219;28;20444;-72
2023/08/17 01:19:27;;;;;;;4.77;1.40;;;;;;;-145.14;100.00;70583.66;5007944;28;20216;-72
2023/08/17 01:22:05;;;;;;;5.67;1.53;;;;;;;-145.14;100.00;70583.66;5008689;28;20493;-72
2023/08/17 01:24:30;;;;;;;4.33;1.10;;;;;;;-145.14;100.00;70583.66;5008346;28;20451;-72
2023/08/17 01:26:56;;;;;;;4.60;1.40;;;;;;;-145.14;100.00;70583.66;5004443;28;20448;-72
2023/08/17 01:29:22;;;;;;;2.83;1.40;;;;;;;-145.14;100.00;70583.66;5005238;28;20680;-72
2023/08/17 01:31:56;;;;;;;7.10;2.00;;;;;;;-145.14;100.00;70583.66;5008074;28;20217;-72
2023/08/17 01:34:25;;;;;;;4.13;1.57;;;;;;;-145.14;100.00;70583.66;5008920;28;20453;-72
2023/08/17 01:36:56;;;;;;;3.87;1.40;;;;;;;-145.14;100.00;70583.66;5006499;28;20454;-72
2023/08/17 01:39:26;;;;;;;3.37;1.47;;;;;;;-145.14;100.00;70583.66;5005364;28;20967;-73
2023/08/17 01:41:55;;;;;;;3.40;1.50;;;;;;;-145.14;100.00;70583.66;5004137;28;20489;-72
2023/08/17 01:44:21;;;;;;;4.10;1.33;;;;;;;-145.14;100.00;70583.66;5005477;28;20443;-72
2023/08/17 01:46:46;;;;;;;5.57;1.60;;;;;;;-145.14;100.00;70583.66;5006063;28;20456;-72
2023/08/17 01:49:11;;;;;;;4.20;1.60;;;;;;;-145.14;100.00;70583.66;5005770;28;20220;-72
2023/08/17 01:51:37;;;;;;;6.60;1.67;;;;;;;-145.14;100.00;70583.66;5007433;28;20219;-72
2023/08/17 01:54:03;;;;;;;3.80;1.30;;;;;;;-145.14;100.00;70583.66;5006306;28;20184;-72
2023/08/17 01:56:28;;;;;;;4.13;1.33;;;;;;;-145.14;100.00;70583.66;5006677;28;20720;-73
2023/08/17 01:58:53;;;;;;;2.83;1.30;;;;;;;-145.14;100.00;70583.66;5008464;28;20205;-73
2023/08/17 02:01:19;;;;;;;5.13;1.97;;;;;;;-145.14;100.00;70583.66;5005043;28;20192;-73
2023/08/17 02:03:44;;;;;;;4.03;1.37;;;;;;;-145.14;100.00;70583.66;5007425;28;20553;-73
2023/08/17 02:06:10;;;;;;;4.07;1.50;;;;;;;-145.14;100.00;70583.66;5008626;28;20192;-72
2023/08/17 02:08:39;;;;;;;5.13;1.67;;;;;;;-145.14;100.00;70583.66;5009694;28;23370;-73
2023/08/17 02:11:04;;;;;;;2.73;1.47;;;;;;;-145.14;100.00;70583.66;5007893;28;20973;-72
2023/08/17 02:13:30;;;;;;;3.90;1.40;;;;;;;-145.14;100.00;70583.66;5004352;28;20522;-73
2023/08/17 02:15:55;;;;;;;3.40;1.40;;;;;;;-145.14;100.00;70583.66;5002576;28;20192;-72
2023/08/17 02:18:20;;;;;;;4.93;1.40;;;;;;;-145.14;100.00;70583.66;5005205;28;20199;-72
2023/08/17 02:20:46;;;;;;;6.97;1.83;;;;;;;-145.14;100.00;70583.66;5007774;28;20267;-72
2023/08/17 02:23:11;;;;;;;4.57;1.43;;;;;;;-145.14;100.00;70583.66;5009936;28;20188;-72
2023/08/17 02:25:40;;;;;;;3.90;1.50;;;;;;;-145.14;100.00;70583.66;5004667;28;20196;-72
2023/08/17 02:28:05;;;;;;;3.53;1.30;;;;;;;-145.14;100.00;70583.66;5006334;28;20708;-72
2023/08/17 02:30:31;;;;;;;4.37;1.67;;;;;;;-145.14;100.00;70583.66;5009999;28;20487;-72
2023/08/17 02:32:57;;;;;;;5.23;1.63;;;;;;;-145.14;100.00;70583.66;5013522;28;20195;-72
2023/08/17 02:35:23;;;;;;;4.27;1.97;;;;;;;-145.14;100.00;70583.66;5015697;28;20207;-72
2023/08/17 02:37:48;;;;;;;3.57;1.30;;;;;;;-145.14;100.00;70583.66;5014618;28;21759;-72
2023/08/17 02:40:13;;;;;;;3.80;1.73;;;;;;;-145.14;100.00;70583.66;5010583;28;20300;-72
2023/08/17 02:42:39;;;;;;;3.70;1.30;;;;;;;-145.14;100.00;70583.66;5007497;28;20193;-72
2023/08/17 02:45:06;;;;;;;3.30;1.70;;;;;;;-145.14;100.00;70583.66;5005903;28;20192;-72
2023/08/17 02:47:32;;;;;;;5.57;1.80;;;;;;;-145.14;100.00;70583.66;5009202;28;20452;-72
2023/08/17 02:49:57;;;;;;;4.93;1.80;;;;;;;-145.14;100.00;70583.66;5007182;28;20459;-72
2023/08/17 02:52:23;;;;;;;2.90;1.20;;;;;;;-145.14;100.00;70583.66;5015182;28;20196;-73
2023/08/17 02:54:48;;;;;;;3.40;1.20;;;;;;;-145.14;100.00;70583.66;5008922;28;20197;-72
2023/08/17 02:57:14;;;;;;;3.80;1.40;;;;;;;-145.14;100.00;70583.66;5010444;28;20200;-72
2023/08/17 02:59:39;;;;;;;5.10;1.47;;;;;;;-145.14;100.00;70583.66;5011314;28;20584;-72
2023/08/17 03:02:04;;;;;;;4.13;1.43;;;;;;;-145.14;100.00;70583.66;5011831;28;20308;-72
2023/08/17 03:04:30;;;;;;;4.73;1.33;;;;;;;-145.14;100.00;70583.66;5006179;28;20930;-72
2023/08/17 03:06:55;;;;;;;2.83;1.30;;;;;;;-145.14;100.00;70583.66;5008258;28;20185;-73
2023/08/17 03:09:21;;;;;;;2.43;1.10;;;;;;;-145.14;100.00;70583.66;5007959;28;20212;-72
2023/08/17 03:11:46;;;;;;;3.33;1.47;;;;;;;-145.14;100.00;70583.66;5011586;28;20728;-73
2023/08/17 03:14:12;;;;;;;4.73;1.50;;;;;;;-145.14;100.00;70583.66;5010867;28;20208;-72
2023/08/17 03:16:37;;;;;;;3.00;1.37;;;;;;;-145.14;100.00;70583.66;5013638;28;20732;-72
2023/08/17 03:19:03;;;;;;;6.70;1.33;;;;;;;-145.14;100.00;70583.66;5012584;28;20212;-72
2023/08/17 03:21:29;;;;;;;4.40;1.93;;;;;;;-145.14;100.00;70583.66;5011108;28;20189;-72
2023/08/17 03:23:54;;;;;;;4.70;1.40;;;;;;;-145.14;100.00;70583.66;5012815;28;21105;-73
2023/08/17 03:26:19;;;;;;;5.67;2.00;;;;;;;-145.14;100.00;70583.66;5011447;28;20239;-73
2023/08/17 03:28:45;;;;;;;2.60;1.30;;;;;;;-145.14;100.00;70583.66;5009106;28;24015;-73
2023/08/17 03:31:10;;;;;;;3.63;1.40;;;;;;;-145.14;100.00;70583.66;5013833;28;20213;-73
2023/08/17 03:33:36;;;;;;;4.70;1.47;;;;;;;-145.14;100.00;70583.66;5009514;28;20192;-72
2023/08/17 03:36:02;;;;;;;5.13;1.20;;;;;;;-145.14;100.00;70583.66;5012179;28;20645;-73
2023/08/17 03:38:28;;;;;;;3.70;1.57;;;;;;;-145.14;100.00;70583.66;5013626;28;20264;-72
2023/08/17 03:40:53;;;;;;;5.60;1.90;;;;;;;-145.14;100.00;70583.66;5008433;28;20556;-72
2023/08/17 03:43:19;;;;;;;5.50;1.20;;;;;;;-145.14;100.00;70583.66;5011992;28;20276;-72
2023/08/17 03:45:44;;;;;;;3.30;1.33;;;;;;;-145.14;100.00;70583.66;5009796;28;20216;-72
2023/08/17 03:48:10;;;;;;;5.80;1.43;;;;;;;-145.14;100.00;70583.66;5008807;28;20193;-72
2023/08/17 03:50:35;;;;;;;4.47;1.80;;;;;;;-145.14;100.00;70583.66;5008399;28;20223;-72
2023/08/17 03:53:01;;;;;;;4.60;1.50;;;;;;;-145.14;100.00;70583.66;5010200;28;20196;-72
2023/08/17 03:55:26;;;;;;;4.73;1.57;;;;;;;-145.14;100.00;70583.66;5011018;28;20193;-73
2023/08/17 03:57:52;;;;;;;3.97;1.40;;;;;;;-145.14;100.00;70583.66;5007793;28;20193;-72
2023/08/17 04:00:17;;;;;;;4.47;1.47;;;;;;;-145.14;100.00;70583.66;5009050;28;20693;-72
2023/08/17 04:02:43;;;;;;;2.30;1.20;;;;;;;-145.14;100.00;70583.66;5010921;28;20197;-72
2023/08/17 04:05:09;;;;;;;3.03;1.30;;;;;;;-145.14;100.00;70583.66;5008903;28;20189;-72
2023/08/17 04:07:34;;;;;;;3.27;1.30;;;;;;;-145.14;100.00;70583.66;5009659;28;20185;-72
2023/08/17 04:10:00;;;;;;;3.47;1.30;;;;;;;-145.14;100.00;70583.66;5009631;28;20600;-72
2023/08/17 04:12:25;;;;;;;3.00;1.50;;;;;;;-145.14;100.00;70583.66;5005895;28;20201;-72
2023/08/17 04:14:50;;;;;;;3.03;1.20;;;;;;;-145.14;100.00;70583.66;5007270;28;20262;-72
2023/08/17 04:17:16;;;;;;;5.40;1.57;;;;;;;-145.14;100.00;70583.66;5010207;28;20185;-72
2023/08/17 04:19:41;;;;;;;4.20;1.20;;;;;;;-145.14;100.00;70583.66;5019918;28;20220;-72
2023/08/17 04:22:07;;;;;;;5.87;1.73;;;;;;;-145.14;100.00;70583.66;5011378;28;20189;-72
2023/08/17 04:24:32;;;;;;;3.20;1.40;;;;;;;-145.14;100.00;70583.66;5010600;28;20713;-72
2023/08/17 04:26:58;;;;;;;4.93;1.90;;;;;;;-145.14;100.00;70583.66;5008597;28;20200;-72
2023/08/17 04:29:23;;;;;;;4.20;1.53;;;;;;;-145.14;100.00;70583.66;5003530;28;20288;-72
2023/08/17 04:31:48;;;;;;;3.87;1.60;;;;;;;-145.14;100.00;70583.66;5009967;28;20839;-72
2023/08/17 04:34:14;;;;;;;5.07;1.50;;;;;;;-145.14;100.00;70583.66;5011459;28;20560;-72
2023/08/17 04:36:39;;;;;;;4.67;1.40;;;;;;;-145.14;100.00;70583.66;5002237;28;20657;-73
2023/08/17 04:39:05;;;;;;;4.00;1.67;;;;;;;-145.14;100.00;70583.66;5005181;28;20255;-74
2023/08/17 04:41:31;;;;;;;3.03;1.20;;;;;;;-145.14;100.00;70583.66;5010684;28;20192;-73
2023/08/17 04:43:56;;;;;;;4.57;1.57;;;;;;;-145.14;100.00;70583.66;5013774;28;20208;-73
2023/08/17 04:46:22;;;;;;;3.43;1.27;;;;;;;-145.14;100.00;70583.66;5010636;28;20184;-73
2023/08/17 04:48:47;;;;;;;3.60;1.40;;;;;;;-145.14;100.00;70583.66;5009026;28;20270;-73
2023/08/17 04:51:14;;;;;;;4.50;1.30;;;;;;;-145.14;100.00;70583.66;5011005;28;20213;-73
2023/08/17 04:53:40;;;;;;;3.50;1.30;;;;;;;-145.14;100.00;70583.66;5012871;28;20196;-73
2023/08/17 04:56:05;;;;;;;2.67;1.20;;;;;;;-145.14;100.00;70583.66;5011038;28;20447;-73
2023/08/17 04:58:31;;;;;;;3.60;1.20;;;;;;;-145.14;100.00;70583.66;5010240;28;20826;-73
2023/08/17 05:00:56;;;;;;;4.03;1.23;;;;;;;-145.14;100.00;70583.66;5010752;28;20185;-73
2023/08/17 05:03:22;;;;;;;6.57;1.40;;;;;;;-145.14;100.00;70583.66;5014464;28;20215;-73
2023/08/17 05:05:47;;;;;;;5.73;1.10;;;;;;;-145.14;100.00;70583.66;5007885;28;20185;-73
2023/08/17 05:08:13;;;;;;;5.07;1.10;;;;;;;-145.14;100.00;70583.66;5012742;28;20245;-73
2023/08/17 05:10:39;;;;;;;3.23;1.10;;;;;;;-145.14;100.00;70583.66;5014139;28;20215;-73
2023/08/17 05:13:04;;;;;;;3.40;1.20;;;;;;;-145.14;100.00;70583.66;5008572;28;20444;-73
2023/08/17 05:15:30;;;;;;;5.23;1.33;;;;;;;-145.14;100.00;70583.66;5011169;28;20193;-73
2023/08/17 05:17:56;;;;;;;3.13;1.23;;;;;;;-145.14;100.00;70583.66;5007617;28;20211;-73
2023/08/17 05:20:21;;;;;;;2.97;1.23;;;;;;;-145.14;100.00;70583.66;5010341;28;20249;-73
2023/08/17 05:22:47;;;;;;;2.80;1.13;;;;;;;-145.14;100.00;70583.66;5010064;28;20489;-73
2023/08/17 05:25:13;;;;;;;7.33;1.60;;;;;;;-145.14;100.00;70583.66;5012981;28;20274;-73
2023/08/17 05:27:38;;;;;;;5.10;2.20;;;;;;;-145.14;100.00;70583.66;5008472;28;20884;-73
2023/08/17 05:30:04;;;;;;;3.07;1.20;;;;;;;-145.14;100.00;70583.66;5014455;28;20580;-73
2023/08/17 05:32:29;;;;;;;2.83;0.93;;;;;;;-145.14;100.00;70583.66;5009654;28;20201;-73
2023/08/17 05:34:57;;;;;;;3.43;1.27;;;;;;;-145.14;100.00;70583.66;5007154;28;20448;-72
2023/08/17 05:37:22;;;;;;;4.43;1.10;;;;;;;-145.14;100.00;70583.66;5010394;28;20577;-73
2023/08/17 05:39:47;;;;;;;4.00;1.30;;;;;;;-145.14;100.00;70583.66;5006711;28;20472;-74
2023/08/17 05:42:13;;;;;;;4.70;1.23;;;;;;;-145.14;100.00;70583.66;5009862;28;20191;-72
2023/08/17 05:44:38;;;;;;;3.17;1.20;;;;;;;-145.14;100.00;70583.66;5009102;28;20196;-73
2023/08/17 05:47:04;;;;;;;3.83;0.97;;;;;;;-145.14;100.00;70583.66;5008862;28;20641;-72
2023/08/17 05:49:29;;;;;;;3.13;0.90;;;;;;;-145.14;100.00;70583.66;5018556;28;20708;-73
2023/08/17 05:51:55;;;;;;;3.73;1.10;;;;;;;-145.14;100.00;70583.66;5010078;28;20208;-73
2023/08/17 05:54:20;;;;;;;4.70;1.43;;;;;;;-145.14;100.00;70583.66;5007979;28;20712;-73
2023/08/17 05:56:47;;;;;;;3.30;1.20;;;;;;;-145.14;100.00;70583.66;5009332;28;20176;-73
2023/08/17 05:59:13;;;;;;;4.60;1.10;;;;;;;-145.14;100.00;70583.66;5007797;28;20237;-73
2023/08/17 06:01:40;;;;;;;4.60;1.10;;;;;;;-145.14;100.00;70583.66;5009389;28;20588;-73
2023/08/17 06:04:06;;;;;;;3.03;1.07;;;;;;;-145.14;100.00;70583.66;5008733;28;20436;-73
2023/08/17 06:06:34;;;;;;;3.20;0.87;;;;;;;-145.14;100.00;70583.66;5008441;28;20503;-73
2023/08/17 06:08:59;;;;;;;2.80;0.93;;;;;;;-145.14;100.00;70583.66;5007880;28;20204;-73
2023/08/17 06:11:24;;;;;;;2.27;0.90;;;;;;;-145.14;100.00;70583.66;5008563;28;20474;-73
2023/08/17 06:13:50;;;;;;;4.23;1.10;;;;;;;-145.14;100.00;70583.66;5009040;28;20238;-73
2023/08/17 06:16:15;;;;;;;4.10;1.30;;;;;;;-145.14;100.00;70583.66;5007751;28;20585;-73
2023/08/17 06:18:41;;;;;;;3.93;1.10;;;;;;;-145.14;100.00;70583.66;5011209;28;20193;-73
2023/08/17 06:21:07;;;;;;;6.23;1.20;;;;;;;-145.14;100.00;70583.66;5008011;28;20572;-73
2023/08/17 06:23:32;;;;;;;4.90;1.30;;;;;;;-145.14;100.00;70583.66;5007024;28;20212;-73
2023/08/17 06:25:58;;;;;;;2.10;0.80;;;;;;;-145.14;100.00;70583.66;5008605;28;20242;-73
2023/08/17 06:28:25;;;;;;;3.17;1.07;;;;;;;-145.14;100.00;70583.66;5007269;28;20194;-73
2023/08/17 06:30:54;;;;;;;3.43;1.20;;;;;;;-145.14;100.00;70583.66;5008434;28;20471;-73
2023/08/17 06:33:19;;;;;;;3.10;0.90;;;;;;;-145.14;100.00;70583.66;5010006;28;20474;-73
2023/08/17 06:35:45;;;;;;;2.00;0.93;;;;;;;-145.14;100.00;70583.66;5007409;28;21201;-73
2023/08/17 06:38:10;;;;;;;3.27;1.20;;;;;;;-145.14;100.00;70583.66;5008370;28;20275;-73
2023/08/17 06:40:36;;;;;;;2.43;0.90;;;;;;;-145.14;100.00;70583.66;5011331;28;20693;-73
2023/08/17 06:43:01;;;;;;;4.00;1.00;;;;;;;-145.14;100.00;70583.66;5008871;28;20196;-73
2023/08/17 06:45:27;;;;;;;3.63;0.83;;;;;;;-145.14;100.00;70583.66;5008735;28;20184;-73
2023/08/17 06:47:52;;;;;;;3.20;0.90;;;;;;;-145.14;100.00;70583.66;5008133;28;20231;-74
2023/08/17 06:50:18;;;;;;;4.83;0.93;;;;;;;-145.14;100.00;70583.66;5007978;28;20788;-73
2023/08/17 06:52:43;;;;;;;2.93;1.03;;;;;;;-145.14;100.00;70583.66;5008369;28;20659;-72
2023/08/17 06:55:10;;;;;;;2.70;0.90;;;;;;;-145.14;100.00;70583.66;5008128;28;20189;-73
2023/08/17 06:57:35;;;;;;;7.60;0.93;;;;;;;-145.14;100.00;70583.66;5006304;28;20195;-73
2023/08/17 07:00:00;;;;;;;5.47;1.00;;;;;;;-145.14;100.00;70583.66;5011645;28;20458;-73
2023/08/17 07:02:26;;;;;;;3.33;0.90;;;;;;;-145.14;100.00;70583.66;5007457;28;20185;-73
2023/08/17 07:04:51;;;;;;;2.53;1.00;;;;;;;-145.14;100.00;70583.66;5009093;28;20765;-73
2023/08/17 07:07:17;;;;;;;2.33;0.90;;;;;;;-145.14;100.00;70583.66;5009502;28;20202;-73
2023/08/17 07:09:42;;;;;;;3.43;1.13;;;;;;;-145.14;100.00;70583.66;5009153;28;20753;-74
2023/08/17 07:12:08;;;;;;;3.10;0.80;;;;;;;-145.14;100.00;70583.66;5015144;28;21038;-73
2023/08/17 07:14:33;;;;;;;2.43;0.83;;;;;;;-145.14;100.00;70583.66;5012259;28;20189;-73
2023/08/17 07:16:59;;;;;;;2.33;0.90;;;;;;;-145.14;100.00;70583.66;5012980;28;20267;-73
2023/08/17 07:19:24;;;;;;;2.10;0.70;;;;;;;-145.14;100.00;70583.66;5021885;28;20347;-73
2023/08/17 07:21:50;;;;;;;1.77;0.70;;;;;;;-145.14;100.00;70583.66;5011576;28;20206;-74
2023/08/17 07:24:16;;;;;;;6.70;1.10;;;;;;;-145.14;100.00;70583.66;5014221;28;20193;-74
2023/08/17 07:26:41;;;;;;;2.80;0.80;;;;;;;-145.14;100.00;70583.66;5010874;28;20185;-73
2023/08/17 07:29:07;;;;;;;2.63;0.80;;;;;;;-145.14;100.00;70583.66;5010257;28;20463;-73
2023/08/17 07:31:33;;;;;;;3.57;1.00;;;;;;;-145.14;100.00;70583.66;5000227;28;20209;-73
2023/08/17 07:33:59;;;;;;;3.00;0.97;;;;;;;-145.14;100.00;70583.66;5013731;28;20181;-73
2023/08/17 07:36:25;;;;;;;3.10;1.00;;;;;;;-145.14;100.00;70583.66;5012290;28;20439;-73
2023/08/17 07:38:50;;;;;;;3.20;0.90;;;;;;;-145.14;100.00;70583.66;5011156;28;20459;-74
2023/08/17 07:41:16;;;;;;;2.00;1.00;;;;;;;-145.14;100.00;70583.66;5012623;28;20209;-73
2023/08/17 07:43:41;;;;;;;2.53;1.00;;;;;;;-145.14;100.00;70583.66;5009578;28;20250;-73
2023/08/17 07:46:07;;;;;;;2.53;0.80;;;;;;;-145.14;100.00;70583.66;5002634;28;20185;-73
2023/08/17 07:48:33;;;;;;;3.20;0.83;;;;;;;-145.14;100.00;70583.66;5008508;28;20181;-73
2023/08/17 07:50:59;;;;;;;2.50;0.73;;;;;;;-145.14;100.00;70583.66;5010683;28;20665;-73
2023/08/17 07:53:25;;;;;;;4.37;1.17;;;;;;;-145.14;100.00;70583.66;5010895;28;20431;-73
2023/08/17 07:55:51;;;;;;;2.90;0.80;;;;;;;-145.14;100.00;70583.66;5012371;28;20775;-73
2023/08/17 07:58:16;;;;;;;2.70;0.93;;;;;;;-145.14;100.00;70583.66;5008707;28;20189;-73
2023/08/17 08:00:42;;;;;;;4.17;1.13;;;;;;;-145.14;100.00;70583.66;5010551;28;20744;-73
2023/08/17 08:03:07;;;;;;;2.60;0.90;;;;;;;-145.14;100.00;70583.66;5011423;28;20247;-72
2023/08/17 08:05:33;;;;;;;3.97;0.80;;;;;;;-145.14;100.00;70583.66;5009711;28;20188;-73
2023/08/17 08:07:58;;;;;;;2.20;0.90;;;;;;;-145.14;100.00;70583.66;5012736;28;20189;-72
2023/08/17 08:10:24;;;;;;;2.00;0.83;;;;;;;-145.14;100.00;70583.66;5012802;28;20693;-73
2023/08/17 08:12:49;;;;;;;4.07;1.10;;;;;;;-145.14;100.00;70583.66;5022774;28;20613;-73
2023/08/17 08:15:15;;;;;;;2.37;0.90;;;;;;;-145.14;100.00;70583.66;5012215;28;21178;-73
2023/08/17 08:17:40;;;;;;;2.90;0.90;;;;;;;-145.14;100.00;70583.66;5012289;28;20272;-73
2023/08/17 08:20:06;;;;;;;4.83;1.10;;;;;;;-145.14;100.00;70583.66;5012159;28;20224;-73
2023/08/17 08:22:32;;;;;;;2.17;0.80;;;;;;;-145.14;100.00;70583.66;5010595;28;20267;-72
2023/08/17 08:24:58;;;;;;;4.10;0.97;;;;;;;-145.14;100.00;70583.66;5012039;28;20980;-73
2023/08/17 08:27:24;;;;;;;3.27;1.00;;;;;;;-145.14;100.00;70583.66;5010924;28;20564;-72
2023/08/17 08:29:49;;;;;;;3.10;0.80;;;;;;;-145.14;100.00;70583.66;5012162;28;20533;-73
2023/08/17 08:32:15;;;;;;;3.13;1.10;;;;;;;-145.14;100.00;70583.66;5009442;28;20482;-73
2023/08/17 08:34:40;;;;;;;3.30;0.90;;;;;;;-145.14;100.00;70583.66;5013390;28;20561;-73
2023/08/17 08:37:06;;;;;;;2.17;1.07;;;;;;;-145.14;100.00;70583.66;5011713;28;20212;-73
2023/08/17 08:39:31;;;;;;;2.27;0.90;;;;;;;-145.14;100.00;70583.66;5009670;28;20244;-73
2023/08/17 08:41:58;;;;;;;3.63;1.23;;;;;;;-145.14;100.00;70583.66;5009840;28;20619;-72
2023/08/17 08:44:24;;;;;;;4.03;1.07;;;;;;;-145.14;100.00;70583.66;5013687;28;20688;-72
2023/08/17 08:46:52;;;;;;;2.63;0.90;;;;;;;-145.14;100.00;70583.66;5010116;28;20471;-72
2023/08/17 08:49:23;;;;;;;2.20;0.90;;;;;;;-145.14;100.00;70583.66;5015501;28;20208;-73
2023/08/17 08:51:51;;;;;;;3.03;0.90;;;;;;;-145.14;100.00;70583.66;5010140;28;20466;-73
2023/08/17 08:54:22;;;;;;;2.70;0.80;;;;;;;-145.14;100.00;70583.66;5011003;28;20542;-72
2023/08/17 08:56:58;;;;;;;2.27;0.70;;;;;;;-145.14;100.00;70583.66;5010985;28;20450;-72
2023/08/17 08:59:26;;;;;;;3.27;0.80;;;;;;;-145.14;100.00;70583.66;5011061;28;20607;-72
2023/08/17 09:01:52;;;;;;;3.10;0.93;;;;;;;-145.14;100.00;70583.66;5011687;28;20932;-73
2023/08/17 09:04:18;;;;;;;2.40;0.90;;;;;;;-145.14;100.00;70583.66;5012341;28;20446;-72
2023/08/17 09:06:43;;;;;;;2.03;0.80;;;;;;;-145.14;100.00;70583.66;5009235;28;20272;-72
2023/08/17 09:09:11;;;;;;;2.33;0.70;;;;;;;-145.14;100.00;70583.66;5012769;28;20204;-73
2023/08/17 09:11:36;;;;;;;2.03;0.80;;;;;;;-145.14;100.00;70583.66;5010470;28;20205;-72
2023/08/17 09:14:02;;;;;;;3.47;1.00;;;;;;;-145.14;100.00;70583.66;5006598;23;20515;-76
2023/08/17 09:16:28;;;;;;;4.73;0.97;;;;;;;-145.14;100.00;70583.66;5000721;28;20185;-76
2023/08/17 09:18:54;;;;;;;4.10;0.90;;;;;;;-145.14;100.00;70583.66;4995210;28;20440;-76
2023/08/17 09:21:24;;;;;;;4.37;1.60;;;;;;;-145.14;100.00;70583.66;4991039;28;20672;-76
2023/08/17 09:23:54;;;;;;;2.70;1.00;;;;;;;-145.14;100.00;70583.66;4991632;28;20349;-76
2023/08/17 09:26:24;;;;;;;2.80;0.80;;;;;;;-145.14;100.00;70583.66;4992144;28;20429;-76
2023/08/17 09:28:56;;;;;;;2.67;0.90;;;;;;;-145.14;100.00;70583.66;4992701;28;20439;-76
2023/08/17 09:31:24;;;;;;;2.73;0.90;;;;;;;-145.14;100.00;70583.66;4992999;28;21189;-77
2023/08/17 09:33:50;;;;;;;2.77;1.00;;;;;;;-145.14;100.00;70583.66;5004152;28;20451;-76
2023/08/17 09:36:21;;;;;;;2.43;0.80;;;;;;;-145.14;100.00;70583.66;4993254;28;20439;-76
2023/08/17 09:38:49;;;;;;;4.23;0.90;;;;;;;-145.14;100.00;70583.66;4988462;28;20460;-76
2023/08/17 09:41:15;;;;;;;3.90;1.20;;;;;;;-145.14;100.00;70583.66;4986619;28;20433;-77
2023/08/17 09:43:41;;;;;;;3.30;0.80;;;;;;;-145.14;100.00;70583.66;4989745;28;20983;-76
2023/08/17 09:46:07;;;;;;;2.70;0.87;;;;;;;-145.14;100.00;70583.66;4990633;28;20193;-76
2023/08/17 09:48:33;;;;;;;3.37;1.20;;;;;;;-145.14;100.00;70583.66;4989923;28;20445;-76
2023/08/17 09:51:01;;;;;;;2.33;0.80;;;;;;;-145.14;100.00;70583.66;4990228;28;20479;-76
2023/08/17 09:53:27;;;;;;;2.40;0.90;;;;;;;-145.14;100.00;70583.66;4991433;28;20217;-76
2023/08/17 09:55:54;;;;;;;3.70;1.47;;;;;;;-145.14;100.00;70583.66;4993863;28;21336;-76
2023/08/17 09:58:20;;;;;;;2.87;1.00;;;;;;;-145.14;100.00;70583.66;4994728;28;20272;-76
2023/08/17 10:00:51;;;;;;;3.03;1.10;;;;;;;-145.14;100.00;70583.66;4990257;28;20508;-76
2023/08/17 10:03:18;;;;;;;3.50;1.17;;;;;;;-145.14;100.00;70583.66;4993639;28;20220;-76
2023/08/17 10:05:47;;;;;;;4.23;0.90;;;;;;;-145.14;100.00;70583.66;5003256;28;20428;-76
2023/08/17 10:08:18;;;;;;;2.40;1.00;;;;;;;-145.14;100.00;70583.66;4992982;28;20482;-76
2023/08/17 10:10:45;;;;;;;2.27;0.73;;;;;;;-145.14;100.00;70583.66;4990499;28;20468;-76
2023/08/17 10:13:13;;;;;;;4.47;1.10;;;;;;;-145.14;100.00;70583.66;4994508;28;20464;-76
2023/08/17 10:16:06;;;;;;;1.93;0.90;;;;;;;-145.14;100.00;70583.66;4990009;28;20417;-76
2023/08/17 10:18:44;;;;;;;3.50;1.27;;;;;;;-145.14;100.00;70583.66;4985879;28;20548;-76
2023/08/17 10:21:16;;;;;;;2.13;0.90;;;;;;;-145.14;100.00;70583.66;4990234;28;20445;-82
2023/08/17 10:23:44;;;;;;;1.97;0.80;;;;;;;-145.14;100.00;70583.66;4991213;28;20487;-80
2023/08/17 10:26:10;;;;;;;2.00;0.90;;;;;;;-145.14;100.00;70583.66;4992422;28;20444;-78
2023/08/17 10:28:37;;;;;;;2.37;0.80;;;;;;;-145.14;100.00;70583.66;4988473;28;20454;-78
2023/08/17 10:31:03;;;;;;;2.97;0.73;;;;;;;-145.14;100.00;70583.66;4989145;28;20287;-78
2023/08/17 10:33:29;;;;;;;5.30;1.20;;;;;;;-145.14;100.00;70583.66;4987411;28;20977;-79
2023/08/17 10:35:57;;;;;;;3.53;1.00;;;;;;;-145.14;100.00;70583.66;4988237;28;20212;-79
2023/08/17 10:38:23;;;;;;;4.97;1.57;;;;;;;-145.14;100.00;70583.66;4988174;28;20744;-79
2023/08/17 10:41:09;;;;;;;2.13;0.83;;;;;;;-145.14;100.00;70583.66;4990888;28;20539;-79
2023/08/17 10:43:35;;;;;;;3.37;1.20;;;;;;;-145.14;100.00;70583.66;4987604;28;20239;-82
2023/08/17 10:46:19;;;;;;;3.93;1.20;;;;;;;-145.14;100.00;70583.66;4996241;28;20949;-80
2023/08/17 10:48:45;;;;;;;2.47;1.10;;;;;;;-145.14;100.00;70583.66;4994864;28;20243;-80
2023/08/17 10:51:13;;;;;;;1.70;0.80;;;;;;;-145.14;100.00;70583.66;4999245;28;20976;-88
2023/08/17 10:53:43;;;;;;;2.40;0.97;;;;;;;-145.14;100.00;70583.66;4993005;28;20210;-78
2023/08/17 10:56:12;;;;;;;3.33;1.10;;;;;;;-145.14;100.00;70583.66;4994016;28;20448;-78
2023/08/17 10:58:38;;;;;;;2.87;0.90;;;;;;;-145.14;100.00;70583.66;4991457;28;20429;-75
2023/08/17 11:01:03;;;;;;;3.80;0.90;;;;;;;-145.14;100.00;70583.66;4994394;28;20447;-76
2023/08/17 11:03:29;;;;;;;4.87;1.20;;;;;;;-145.14;100.00;70583.66;4993855;28;20210;-75
2023/08/17 11:05:58;;;;;;;2.73;0.97;;;;;;;-145.14;100.00;70583.66;4994637;28;20193;-76